sensor_id;sensor_type;location;lat;lon;timestamp;pressure;altitude;pressure_sealevel;temperature;humidity
64908;BME280;69061;52.236;5.188;2023-08-07T00:01:16;101265.19;;;15.72;100.00
64908;BME280;69061;52.236;5.188;2023-08-07T00:03:43;101262.09;;;15.73;100.00
64908;BME280;69061;52.236;5.188;2023-08-07T00:06:10;101265.56;;;15.66;100.00
64908;BME280;69061;52.236;5.188;2023-08-07T00:08:38;101245.69;;;15.53;100.00
64908;BME280;69061;52.236;5.188;2023-08-07T00:11:05;101261.41;;;15.55;100.00
64908;BME280;69061;52.236;5.188;2023-08-07T00:13:32;101263.31;;;15.61;100.00
64908;BME280;69061;52.236;5.188;2023-08-07T00:15:58;101267.88;;;15.64;100.00
64908;BME280;69061;52.236;5.188;2023-08-07T00:18:25;101273.59;;;15.66;100.00
64908;BME280;69061;52.236;5.188;2023-08-07T00:20:52;101274.75;;;15.73;100.00
64908;BME280;69061;52.236;5.188;2023-08-07T00:23:18;101270.53;;;15.72;100.00
64908;BME280;69061;52.236;5.188;2023-08-07T00:25:46;101261.38;;;15.65;99.51
64908;BME280;69061;52.236;5.188;2023-08-07T00:28:13;101251.06;;;15.60;100.00
64908;BME280;69061;52.236;5.188;2023-08-07T00:30:39;101266.75;;;15.58;100.00
64908;BME280;69061;52.236;5.188;2023-08-07T00:33:06;101256.03;;;15.58;100.00
64908;BME280;69061;52.236;5.188;2023-08-07T00:35:33;101252.59;;;15.61;100.00
64908;BME280;69061;52.236;5.188;2023-08-07T00:37:59;101241.88;;;15.61;99.66
64908;BME280;69061;52.236;5.188;2023-08-07T00:40:26;101254.50;;;15.57;99.20
64908;BME280;69061;52.236;5.188;2023-08-07T00:42:54;101253.34;;;15.58;99.73
64908;BME280;69061;52.236;5.188;2023-08-07T00:45:20;101256.03;;;15.65;100.00
64908;BME280;69061;52.236;5.188;2023-08-07T00:47:47;101257.91;;;15.72;100.00
64908;BME280;69061;52.236;5.188;2023-08-07T00:50:14;101259.81;;;15.72;100.00
64908;BME280;69061;52.236;5.188;2023-08-07T00:52:41;101250.25;;;15.74;100.00
64908;BME280;69061;52.236;5.188;2023-08-07T00:55:08;101246.38;;;15.79;100.00
64908;BME280;69061;52.236;5.188;2023-08-07T00:57:36;101244.88;;;15.78;100.00
64908;BME280;69061;52.236;5.188;2023-08-07T01:00:05;101250.63;;;15.87;100.00
64908;BME280;69061;52.236;5.188;2023-08-07T01:02:33;101246.03;;;15.84;100.00
64908;BME280;69061;52.236;5.188;2023-08-07T01:05:00;101247.56;;;15.85;100.00
64908;BME280;69061;52.236;5.188;2023-08-07T01:07:26;101252.91;;;15.81;100.00
64908;BME280;69061;52.236;5.188;2023-08-07T01:09:53;101248.31;;;15.78;99.50
64908;BME280;69061;52.236;5.188;2023-08-07T01:12:26;101243.75;;;15.75;98.94
64908;BME280;69061;52.236;5.188;2023-08-07T01:15:02;101234.94;;;15.68;99.47
64908;BME280;69061;52.236;5.188;2023-08-07T01:17:31;101247.97;;;15.76;99.94
64908;BME280;69061;52.236;5.188;2023-08-07T01:20:00;101250.63;;;15.80;99.48
64908;BME280;69061;52.236;5.188;2023-08-07T01:22:29;101241.41;;;15.77;99.57
64908;BME280;69061;52.236;5.188;2023-08-07T01:24:56;101257.13;;;15.86;98.69
64908;BME280;69061;52.236;5.188;2023-08-07T01:27:32;101267.06;;;15.89;97.89
64908;BME280;69061;52.236;5.188;2023-08-07T01:30:09;101254.06;;;15.84;97.12
64908;BME280;69061;52.236;5.188;2023-08-07T01:32:43;101264.78;;;15.91;97.32
64908;BME280;69061;52.236;5.188;2023-08-07T01:35:14;101268.22;;;15.92;97.80
64908;BME280;69061;52.236;5.188;2023-08-07T01:37:42;101270.50;;;15.93;97.63
64908;BME280;69061;52.236;5.188;2023-08-07T01:40:12;101264.78;;;15.88;96.82
64908;BME280;69061;52.236;5.188;2023-08-07T01:42:39;101273.97;;;15.90;97.12
64908;BME280;69061;52.236;5.188;2023-08-07T01:45:07;101266.72;;;15.87;97.48
64908;BME280;69061;52.236;5.188;2023-08-07T01:47:33;101271.66;;;15.96;97.68
64908;BME280;69061;52.236;5.188;2023-08-07T01:50:00;101272.78;;;16.02;97.50
64908;BME280;69061;52.236;5.188;2023-08-07T01:52:27;101264.75;;;15.98;97.71
64908;BME280;69061;52.236;5.188;2023-08-07T01:54:55;101270.84;;;16.06;97.86
64908;BME280;69061;52.236;5.188;2023-08-07T01:57:22;101275.44;;;16.09;97.79
64908;BME280;69061;52.236;5.188;2023-08-07T01:59:49;101270.41;;;16.11;97.83
64908;BME280;69061;52.236;5.188;2023-08-07T02:02:16;101268.88;;;16.14;96.97
64908;BME280;69061;52.236;5.188;2023-08-07T02:04:42;101276.94;;;16.14;96.58
64908;BME280;69061;52.236;5.188;2023-08-07T02:07:09;101278.47;;;16.15;97.13
64908;BME280;69061;52.236;5.188;2023-08-07T02:09:36;101279.22;;;16.19;97.39
64908;BME280;69061;52.236;5.188;2023-08-07T02:12:05;101286.47;;;16.22;96.35
64908;BME280;69061;52.236;5.188;2023-08-07T02:14:32;101282.66;;;16.20;96.84
64908;BME280;69061;52.236;5.188;2023-08-07T02:16:58;101278.41;;;16.22;96.06
64908;BME280;69061;52.236;5.188;2023-08-07T02:19:25;101285.72;;;16.18;95.74
64908;BME280;69061;52.236;5.188;2023-08-07T02:21:52;101278.47;;;16.15;96.80
64908;BME280;69061;52.236;5.188;2023-08-07T02:24:18;101278.06;;;16.16;97.10
64908;BME280;69061;52.236;5.188;2023-08-07T02:26:45;101286.47;;;16.22;97.73
64908;BME280;69061;52.236;5.188;2023-08-07T02:29:13;101293.75;;;16.25;97.45
64908;BME280;69061;52.236;5.188;2023-08-07T02:31:40;101305.22;;;16.29;97.56
64908;BME280;69061;52.236;5.188;2023-08-07T02:34:07;101293.72;;;16.32;97.19
64908;BME280;69061;52.236;5.188;2023-08-07T02:36:33;101300.59;;;16.33;97.06
64908;BME280;69061;52.236;5.188;2023-08-07T02:39:00;101290.66;;;16.30;96.41
64908;BME280;69061;52.236;5.188;2023-08-07T02:41:26;101288.78;;;16.20;96.00
64908;BME280;69061;52.236;5.188;2023-08-07T02:43:53;101293.00;;;16.21;96.87
64908;BME280;69061;52.236;5.188;2023-08-07T02:46:21;101299.13;;;16.18;96.49
64908;BME280;69061;52.236;5.188;2023-08-07T02:48:48;101306.06;;;16.12;95.93
64908;BME280;69061;52.236;5.188;2023-08-07T02:51:14;101302.63;;;16.08;96.78
64908;BME280;69061;52.236;5.188;2023-08-07T02:53:41;101298.03;;;16.05;97.05
64908;BME280;69061;52.236;5.188;2023-08-07T02:56:08;101296.13;;;16.02;97.62
64908;BME280;69061;52.236;5.188;2023-08-07T02:58:34;101284.28;;;15.95;97.98
64908;BME280;69061;52.236;5.188;2023-08-07T03:01:03;101291.19;;;15.89;98.35
64908;BME280;69061;52.236;5.188;2023-08-07T03:03:31;101291.97;;;15.86;98.34
64908;BME280;69061;52.236;5.188;2023-08-07T03:05:58;101287.38;;;15.76;97.46
64908;BME280;69061;52.236;5.188;2023-08-07T03:08:25;101292.34;;;15.77;98.88
64908;BME280;69061;52.236;5.188;2023-08-07T03:10:52;101292.72;;;15.79;98.36
64908;BME280;69061;52.236;5.188;2023-08-07T03:13:19;101295.81;;;15.78;97.55
64908;BME280;69061;52.236;5.188;2023-08-07T03:15:45;101280.13;;;15.65;97.89
64908;BME280;69061;52.236;5.188;2023-08-07T03:18:14;101286.25;;;15.70;97.85
64908;BME280;69061;52.236;5.188;2023-08-07T03:20:42;101289.69;;;15.66;97.68
64908;BME280;69061;52.236;5.188;2023-08-07T03:23:09;101285.88;;;15.60;97.64
64908;BME280;69061;52.236;5.188;2023-08-07T03:25:36;101278.59;;;15.57;98.01
64908;BME280;69061;52.236;5.188;2023-08-07T03:28:03;101280.13;;;15.58;99.09
64908;BME280;69061;52.236;5.188;2023-08-07T03:30:30;101287.03;;;15.56;98.83
64908;BME280;69061;52.236;5.188;2023-08-07T03:32:56;101275.56;;;15.55;98.61
64908;BME280;69061;52.236;5.188;2023-08-07T03:35:23;101276.69;;;15.54;98.81
64908;BME280;69061;52.236;5.188;2023-08-07T03:37:51;101267.16;;;15.42;97.82
64908;BME280;69061;52.236;5.188;2023-08-07T03:40:17;101289.34;;;15.46;98.72
64908;BME280;69061;52.236;5.188;2023-08-07T03:42:44;101274.41;;;15.49;99.14
64908;BME280;69061;52.236;5.188;2023-08-07T03:45:11;101285.88;;;15.53;98.32
64908;BME280;69061;52.236;5.188;2023-08-07T03:47:37;101283.22;;;15.49;99.11
64908;BME280;69061;52.236;5.188;2023-08-07T03:50:05;101261.41;;;15.47;99.94
64908;BME280;69061;52.236;5.188;2023-08-07T03:52:32;101284.75;;;15.58;100.00
64908;BME280;69061;52.236;5.188;2023-08-07T03:55:00;101288.94;;;15.66;100.00
64908;BME280;69061;52.236;5.188;2023-08-07T03:57:26;101285.50;;;15.65;100.00
64908;BME280;69061;52.236;5.188;2023-08-07T03:59:53;101286.63;;;15.72;100.00
64908;BME280;69061;52.236;5.188;2023-08-07T04:02:20;101262.53;;;15.64;100.00
64908;BME280;69061;52.236;5.188;2023-08-07T04:04:48;101277.78;;;15.78;100.00
64908;BME280;69061;52.236;5.188;2023-08-07T04:07:15;101278.53;;;15.93;100.00
64908;BME280;69061;52.236;5.188;2023-08-07T04:09:42;101287.34;;;15.97;100.00
64908;BME280;69061;52.236;5.188;2023-08-07T04:12:10;101292.66;;;16.05;100.00
64908;BME280;69061;52.236;5.188;2023-08-07T04:14:36;101291.13;;;16.07;99.40
64908;BME280;69061;52.236;5.188;2023-08-07T04:17:03;101285.00;;;16.03;98.62
64908;BME280;69061;52.236;5.188;2023-08-07T04:19:30;101294.97;;;15.99;98.38
64908;BME280;69061;52.236;5.188;2023-08-07T04:21:57;101282.38;;;15.92;98.32
64908;BME280;69061;52.236;5.188;2023-08-07T04:24:23;101299.59;;;15.98;98.75
64908;BME280;69061;52.236;5.188;2023-08-07T04:26:50;101297.66;;;16.03;98.73
64908;BME280;69061;52.236;5.188;2023-08-07T04:29:18;101290.41;;;15.99;98.31
64908;BME280;69061;52.236;5.188;2023-08-07T04:31:45;101301.84;;;16.07;97.28
64908;BME280;69061;52.236;5.188;2023-08-07T04:34:12;101295.34;;;16.05;97.03
64908;BME280;69061;52.236;5.188;2023-08-07T04:36:39;101299.94;;;16.04;97.04
64908;BME280;69061;52.236;5.188;2023-08-07T04:39:05;101303.78;;;16.07;97.50
64908;BME280;69061;52.236;5.188;2023-08-07T04:41:32;101305.31;;;16.08;97.05
64908;BME280;69061;52.236;5.188;2023-08-07T04:43:59;101319.06;;;16.13;96.64
64908;BME280;69061;52.236;5.188;2023-08-07T04:46:27;101315.25;;;16.14;96.57
64908;BME280;69061;52.236;5.188;2023-08-07T04:48:54;101321.34;;;16.19;97.47
64908;BME280;69061;52.236;5.188;2023-08-07T04:51:20;101306.81;;;16.16;98.09
64908;BME280;69061;52.236;5.188;2023-08-07T04:53:48;101320.16;;;16.30;98.10
64908;BME280;69061;52.236;5.188;2023-08-07T04:56:16;101319.00;;;16.35;98.12
64908;BME280;69061;52.236;5.188;2023-08-07T04:58:42;101340.44;;;16.39;98.09
64908;BME280;69061;52.236;5.188;2023-08-07T05:01:09;101339.66;;;16.42;97.54
64908;BME280;69061;52.236;5.188;2023-08-07T05:03:38;101333.16;;;16.39;97.43
64908;BME280;69061;52.236;5.188;2023-08-07T05:06:04;101347.31;;;16.47;97.70
64908;BME280;69061;52.236;5.188;2023-08-07T05:08:31;101344.22;;;16.45;96.86
64908;BME280;69061;52.236;5.188;2023-08-07T05:10:58;101350.41;;;16.35;95.94
64908;BME280;69061;52.236;5.188;2023-08-07T05:13:25;101342.03;;;16.18;96.87
64908;BME280;69061;52.236;5.188;2023-08-07T05:15:51;101349.31;;;16.21;97.51
64908;BME280;69061;52.236;5.188;2023-08-07T05:18:18;101345.47;;;16.22;97.22
64908;BME280;69061;52.236;5.188;2023-08-07T05:20:46;101350.06;;;16.18;96.20
64908;BME280;69061;52.236;5.188;2023-08-07T05:23:13;101355.84;;;16.13;96.20
64908;BME280;69061;52.236;5.188;2023-08-07T05:25:40;101360.09;;;16.10;96.21
64908;BME280;69061;52.236;5.188;2023-08-07T05:28:06;101361.97;;;16.10;96.44
64908;BME280;69061;52.236;5.188;2023-08-07T05:30:33;101358.53;;;16.06;95.69
64908;BME280;69061;52.236;5.188;2023-08-07T05:33:00;101358.19;;;16.04;96.22
64908;BME280;69061;52.236;5.188;2023-08-07T05:35:28;101365.84;;;16.02;96.00
64908;BME280;69061;52.236;5.188;2023-08-07T05:38:04;101363.56;;;15.93;96.05
64908;BME280;69061;52.236;5.188;2023-08-07T05:40:31;101365.84;;;15.94;95.86
64908;BME280;69061;52.236;5.188;2023-08-07T05:42:57;101370.81;;;15.92;96.42
64908;BME280;69061;52.236;5.188;2023-08-07T05:45:24;101374.66;;;15.98;97.11
64908;BME280;69061;52.236;5.188;2023-08-07T05:47:50;101377.31;;;16.06;96.78
64908;BME280;69061;52.236;5.188;2023-08-07T05:50:17;101373.09;;;16.12;96.52
64908;BME280;69061;52.236;5.188;2023-08-07T05:52:44;101381.50;;;16.14;96.15
64908;BME280;69061;52.236;5.188;2023-08-07T05:55:12;101375.38;;;16.13;95.94
64908;BME280;69061;52.236;5.188;2023-08-07T05:57:39;101383.41;;;16.24;96.02
64908;BME280;69061;52.236;5.188;2023-08-07T06:00:06;101377.66;;;16.22;95.66
64908;BME280;69061;52.236;5.188;2023-08-07T06:02:39;101379.19;;;16.23;95.64
64908;BME280;69061;52.236;5.188;2023-08-07T06:05:06;101385.66;;;16.33;95.72
64908;BME280;69061;52.236;5.188;2023-08-07T06:07:34;101387.19;;;16.38;95.41
64908;BME280;69061;52.236;5.188;2023-08-07T06:10:01;101389.47;;;16.39;94.69
64908;BME280;69061;52.236;5.188;2023-08-07T06:12:29;101404.38;;;16.51;93.89
64908;BME280;69061;52.236;5.188;2023-08-07T06:14:56;101392.50;;;16.52;92.71
64908;BME280;69061;52.236;5.188;2023-08-07T06:17:22;101401.66;;;16.58;92.95
64908;BME280;69061;52.236;5.188;2023-08-07T06:19:49;101397.06;;;16.62;93.21
64908;BME280;69061;52.236;5.188;2023-08-07T06:22:16;101402.00;;;16.67;93.35
64908;BME280;69061;52.236;5.188;2023-08-07T06:24:42;101406.97;;;16.73;92.92
64908;BME280;69061;52.236;5.188;2023-08-07T06:27:09;101414.63;;;16.78;92.65
64908;BME280;69061;52.236;5.188;2023-08-07T06:29:37;101411.53;;;16.83;92.13
64908;BME280;69061;52.236;5.188;2023-08-07T06:32:04;101416.91;;;16.90;92.26
64908;BME280;69061;52.236;5.188;2023-08-07T06:34:31;101415.31;;;16.96;91.71
64908;BME280;69061;52.236;5.188;2023-08-07T06:36:58;101429.13;;;16.98;91.64
64908;BME280;69061;52.236;5.188;2023-08-07T06:39:24;101430.28;;;16.97;90.50
64908;BME280;69061;52.236;5.188;2023-08-07T06:41:51;101434.16;;;16.89;89.98
64908;BME280;69061;52.236;5.188;2023-08-07T06:44:17;101427.66;;;16.79;89.83
64908;BME280;69061;52.236;5.188;2023-08-07T06:46:45;101435.31;;;16.81;90.24
64908;BME280;69061;52.236;5.188;2023-08-07T06:49:12;101442.97;;;16.79;89.67
64908;BME280;69061;52.236;5.188;2023-08-07T06:51:39;101439.19;;;16.73;89.52
64908;BME280;69061;52.236;5.188;2023-08-07T06:54:05;101439.19;;;16.69;89.74
64908;BME280;69061;52.236;5.188;2023-08-07T06:56:32;101437.31;;;16.62;90.28
64908;BME280;69061;52.236;5.188;2023-08-07T06:58:59;101443.03;;;16.68;90.66
64908;BME280;69061;52.236;5.188;2023-08-07T07:01:25;101444.16;;;16.71;90.74
64908;BME280;69061;52.236;5.188;2023-08-07T07:03:53;101448.78;;;16.74;90.45
64908;BME280;69061;52.236;5.188;2023-08-07T07:06:20;101444.50;;;16.83;90.77
64908;BME280;69061;52.236;5.188;2023-08-07T07:08:48;101452.53;;;16.94;90.84
64908;BME280;69061;52.236;5.188;2023-08-07T07:11:15;101450.19;;;17.04;90.81
64908;BME280;69061;52.236;5.188;2023-08-07T07:13:41;101446.31;;;17.12;90.42
64908;BME280;69061;52.236;5.188;2023-08-07T07:16:08;101449.28;;;17.25;90.35
64908;BME280;69061;52.236;5.188;2023-08-07T07:18:37;101467.28;;;17.39;90.00
64908;BME280;69061;52.236;5.188;2023-08-07T07:21:05;101465.69;;;17.41;88.80
64908;BME280;69061;52.236;5.188;2023-08-07T07:23:31;101469.50;;;17.44;88.89
64908;BME280;69061;52.236;5.188;2023-08-07T07:25:58;101461.91;;;17.39;88.55
64908;BME280;69061;52.236;5.188;2023-08-07T07:28:26;101470.28;;;17.44;88.72
64908;BME280;69061;52.236;5.188;2023-08-07T07:30:52;101473.75;;;17.41;88.14
64908;BME280;69061;52.236;5.188;2023-08-07T07:33:19;101476.09;;;17.39;87.76
64908;BME280;69061;52.236;5.188;2023-08-07T07:35:45;101462.34;;;17.26;86.81
64908;BME280;69061;52.236;5.188;2023-08-07T07:38:14;101480.41;;;17.22;87.21
64908;BME280;69061;52.236;5.188;2023-08-07T07:40:41;101486.56;;;17.19;87.98
64908;BME280;69061;52.236;5.188;2023-08-07T07:43:08;101475.81;;;17.19;88.35
64908;BME280;69061;52.236;5.188;2023-08-07T07:45:35;101488.09;;;17.16;88.15
64908;BME280;69061;52.236;5.188;2023-08-07T07:48:02;101489.25;;;17.19;88.06
64908;BME280;69061;52.236;5.188;2023-08-07T07:50:29;101498.44;;;17.18;87.53
64908;BME280;69061;52.236;5.188;2023-08-07T07:52:55;101498.09;;;17.16;87.92
64908;BME280;69061;52.236;5.188;2023-08-07T07:55:24;101507.69;;;17.13;87.46
64908;BME280;69061;52.236;5.188;2023-08-07T07:57:51;101514.25;;;17.05;86.61
64908;BME280;69061;52.236;5.188;2023-08-07T08:00:18;101511.22;;;16.92;86.45
64908;BME280;69061;52.236;5.188;2023-08-07T08:02:45;101530.03;;;16.92;87.07
64908;BME280;69061;52.236;5.188;2023-08-07T08:05:12;101524.28;;;16.90;87.02
64908;BME280;69061;52.236;5.188;2023-08-07T08:07:40;101525.00;;;17.02;86.72
64908;BME280;69061;52.236;5.188;2023-08-07T08:10:08;101526.91;;;17.08;85.48
64908;BME280;69061;52.236;5.188;2023-08-07T08:12:36;101524.91;;;17.20;86.89
64908;BME280;69061;52.236;5.188;2023-08-07T08:15:03;101529.44;;;17.41;85.91
64908;BME280;69061;52.236;5.188;2023-08-07T08:17:30;101530.09;;;17.59;84.72
64908;BME280;69061;52.236;5.188;2023-08-07T08:19:57;101535.31;;;17.81;83.51
64908;BME280;69061;52.236;5.188;2023-08-07T08:22:24;101522.56;;;17.96;82.81
64908;BME280;69061;52.236;5.188;2023-08-07T08:24:51;101541.22;;;18.14;81.97
64908;BME280;69061;52.236;5.188;2023-08-07T08:27:17;101548.91;;;18.15;80.48
64908;BME280;69061;52.236;5.188;2023-08-07T08:29:45;101543.25;;;18.03;78.22
64908;BME280;69061;52.236;5.188;2023-08-07T08:32:12;101541.84;;;17.83;77.49
64908;BME280;69061;52.236;5.188;2023-08-07T08:34:39;101562.22;;;17.77;77.99
64908;BME280;69061;52.236;5.188;2023-08-07T08:37:06;101561.19;;;17.60;78.11
64908;BME280;69061;52.236;5.188;2023-08-07T08:39:33;101546.34;;;17.38;79.83
64908;BME280;69061;52.236;5.188;2023-08-07T08:42:00;101552.88;;;17.33;80.19
64908;BME280;69061;52.236;5.188;2023-08-07T08:44:29;101560.19;;;17.29;82.12
64908;BME280;69061;52.236;5.188;2023-08-07T08:47:00;101556.00;;;17.28;82.20
64908;BME280;69061;52.236;5.188;2023-08-07T08:49:30;101562.09;;;17.32;83.08
64908;BME280;69061;52.236;5.188;2023-08-07T08:51:59;101560.91;;;17.40;82.70
64908;BME280;69061;52.236;5.188;2023-08-07T08:54:26;101563.53;;;17.51;83.08
64908;BME280;69061;52.236;5.188;2023-08-07T08:56:54;101563.03;;;17.67;82.79
64908;BME280;69061;52.236;5.188;2023-08-07T08:59:22;101560.66;;;17.83;81.39
64908;BME280;69061;52.236;5.188;2023-08-07T09:01:50;101554.44;;;17.97;81.42
64908;BME280;69061;52.236;5.188;2023-08-07T09:04:19;101563.88;;;18.16;80.40
64908;BME280;69061;52.236;5.188;2023-08-07T09:06:46;101562.22;;;18.33;79.33
64908;BME280;69061;52.236;5.188;2023-08-07T09:09:14;101566.28;;;18.49;78.44
64908;BME280;69061;52.236;5.188;2023-08-07T09:11:42;101568.47;;;18.61;76.13
64908;BME280;69061;52.236;5.188;2023-08-07T09:14:15;101572.19;;;18.75;76.51
64908;BME280;69061;52.236;5.188;2023-08-07T09:16:43;101577.91;;;18.80;75.06
64908;BME280;69061;52.236;5.188;2023-08-07T09:19:10;101574.16;;;18.71;74.02
64908;BME280;69061;52.236;5.188;2023-08-07T09:21:38;101582.31;;;18.63;74.25
64908;BME280;69061;52.236;5.188;2023-08-07T09:24:05;101587.75;;;18.56;75.46
64908;BME280;69061;52.236;5.188;2023-08-07T09:26:32;101596.63;;;18.53;76.26
64908;BME280;69061;52.236;5.188;2023-08-07T09:28:59;101596.38;;;18.40;75.11
64908;BME280;69061;52.236;5.188;2023-08-07T09:31:26;101592.25;;;18.25;75.68
64908;BME280;69061;52.236;5.188;2023-08-07T09:33:53;101604.19;;;18.24;75.02
64908;BME280;69061;52.236;5.188;2023-08-07T09:36:19;101593.09;;;18.18;75.93
64908;BME280;69061;52.236;5.188;2023-08-07T09:38:50;101602.34;;;18.13;75.33
64908;BME280;69061;52.236;5.188;2023-08-07T09:41:17;101604.66;;;18.15;76.43
64908;BME280;69061;52.236;5.188;2023-08-07T09:43:44;101612.72;;;18.15;76.84
64908;BME280;69061;52.236;5.188;2023-08-07T09:46:11;101614.28;;;18.09;77.74
64908;BME280;69061;52.236;5.188;2023-08-07T09:48:39;101611.22;;;18.07;77.62
64908;BME280;69061;52.236;5.188;2023-08-07T09:51:06;101605.19;;;17.92;77.86
64908;BME280;69061;52.236;5.188;2023-08-07T09:53:33;101620.13;;;17.96;77.65
64908;BME280;69061;52.236;5.188;2023-08-07T09:56:01;101616.31;;;17.90;77.70
64908;BME280;69061;52.236;5.188;2023-08-07T09:58:28;101611.31;;;17.92;79.06
64908;BME280;69061;52.236;5.188;2023-08-07T10:00:55;101623.88;;;18.10;78.79
64908;BME280;69061;52.236;5.188;2023-08-07T10:03:25;101616.97;;;18.12;77.34
64908;BME280;69061;52.236;5.188;2023-08-07T10:05:52;101612.72;;;18.15;79.06
64908;BME280;69061;52.236;5.188;2023-08-07T10:08:19;101620.63;;;18.37;78.88
64908;BME280;69061;52.236;5.188;2023-08-07T10:10:47;101609.34;;;18.52;77.54
64908;BME280;69061;52.236;5.188;2023-08-07T10:13:16;101618.09;;;18.60;77.59
64908;BME280;69061;52.236;5.188;2023-08-07T10:15:44;101617.63;;;18.73;77.49
64908;BME280;69061;52.236;5.188;2023-08-07T10:18:12;101619.00;;;18.92;77.50
64908;BME280;69061;52.236;5.188;2023-08-07T10:20:39;101620.34;;;19.07;76.15
64908;BME280;69061;52.236;5.188;2023-08-07T10:23:08;101617.97;;;19.13;75.52
64908;BME280;69061;52.236;5.188;2023-08-07T10:25:38;101621.91;;;19.05;73.42
64908;BME280;69061;52.236;5.188;2023-08-07T10:28:08;101622.00;;;18.97;73.46
64908;BME280;69061;52.236;5.188;2023-08-07T10:30:38;101618.16;;;18.98;73.87
64908;BME280;69061;52.236;5.188;2023-08-07T10:33:06;101628.94;;;18.98;74.66
64908;BME280;69061;52.236;5.188;2023-08-07T10:35:33;101632.22;;;19.13;73.92
64908;BME280;69061;52.236;5.188;2023-08-07T10:38:07;101631.72;;;19.22;71.82
64908;BME280;69061;52.236;5.188;2023-08-07T10:40:34;101630.97;;;19.22;71.81
64908;BME280;69061;52.236;5.188;2023-08-07T10:43:24;101636.84;;;19.13;69.91
64908;BME280;69061;52.236;5.188;2023-08-07T10:45:53;101650.78;;;19.04;70.42
64908;BME280;69061;52.236;5.188;2023-08-07T10:48:20;101651.19;;;19.02;70.74
64908;BME280;69061;52.236;5.188;2023-08-07T10:50:56;101650.81;;;19.00;69.16
64908;BME280;69061;52.236;5.188;2023-08-07T10:53:29;101642.00;;;19.00;69.13
64908;BME280;69061;52.236;5.188;2023-08-07T10:55:56;101653.50;;;19.04;70.14
64908;BME280;69061;52.236;5.188;2023-08-07T10:58:26;101652.66;;;19.11;70.24
64908;BME280;69061;52.236;5.188;2023-08-07T11:01:17;101650.28;;;19.16;69.53
64908;BME280;69061;52.236;5.188;2023-08-07T11:03:44;101658.69;;;19.22;68.94
64908;BME280;69061;52.236;5.188;2023-08-07T11:06:11;101648.53;;;19.33;70.02
64908;BME280;69061;52.236;5.188;2023-08-07T11:08:39;101653.31;;;19.53;68.06
64908;BME280;69061;52.236;5.188;2023-08-07T11:11:06;101654.31;;;19.66;67.60
64908;BME280;69061;52.236;5.188;2023-08-07T11:13:35;101660.16;;;19.92;67.64
64908;BME280;69061;52.236;5.188;2023-08-07T11:16:02;101653.09;;;19.98;66.88
64908;BME280;69061;52.236;5.188;2023-08-07T11:18:30;101656.88;;;20.05;66.92
64908;BME280;69061;52.236;5.188;2023-08-07T11:20:57;101656.72;;;20.15;67.79
64908;BME280;69061;52.236;5.188;2023-08-07T11:23:24;101649.13;;;20.34;67.58
64908;BME280;69061;52.236;5.188;2023-08-07T11:25:52;101644.94;;;20.53;66.13
64908;BME280;69061;52.236;5.188;2023-08-07T11:28:19;101657.19;;;20.58;63.89
64908;BME280;69061;52.236;5.188;2023-08-07T11:30:49;101648.53;;;20.46;63.64
64908;BME280;69061;52.236;5.188;2023-08-07T11:33:17;101661.31;;;20.42;65.07
64908;BME280;69061;52.236;5.188;2023-08-07T11:35:44;101645.97;;;20.59;64.68
64908;BME280;69061;52.236;5.188;2023-08-07T11:38:11;101638.38;;;20.78;65.00
64908;BME280;69061;52.236;5.188;2023-08-07T11:40:38;101637.13;;;21.02;62.35
64908;BME280;69061;52.236;5.188;2023-08-07T11:43:04;101642.91;;;21.05;61.07
64908;BME280;69061;52.236;5.188;2023-08-07T11:45:31;101651.00;;;21.05;61.02
64908;BME280;69061;52.236;5.188;2023-08-07T11:47:59;101650.31;;;21.00;60.96
64908;BME280;69061;52.236;5.188;2023-08-07T11:50:27;101655.22;;;21.06;58.69
64908;BME280;69061;52.236;5.188;2023-08-07T11:52:55;101654.53;;;21.22;58.84
64908;BME280;69061;52.236;5.188;2023-08-07T11:55:28;101655.28;;;21.42;56.86
64908;BME280;69061;52.236;5.188;2023-08-07T11:57:55;101656.78;;;21.63;56.09
64908;BME280;69061;52.236;5.188;2023-08-07T12:00:24;101651.75;;;21.65;55.59
64908;BME280;69061;52.236;5.188;2023-08-07T12:02:52;101655.97;;;21.46;55.14
64908;BME280;69061;52.236;5.188;2023-08-07T12:05:20;101657.22;;;21.42;54.64
64908;BME280;69061;52.236;5.188;2023-08-07T12:07:47;101658.41;;;21.41;52.50
64908;BME280;69061;52.236;5.188;2023-08-07T12:10:14;101646.69;;;21.47;53.65
64908;BME280;69061;52.236;5.188;2023-08-07T12:12:42;101657.16;;;21.65;53.27
64908;BME280;69061;52.236;5.188;2023-08-07T12:15:10;101650.31;;;21.77;52.64
64908;BME280;69061;52.236;5.188;2023-08-07T12:17:36;101655.22;;;21.82;52.87
64908;BME280;69061;52.236;5.188;2023-08-07T12:20:04;101647.38;;;21.88;52.65
64908;BME280;69061;52.236;5.188;2023-08-07T12:22:35;101651.88;;;21.95;50.97
64908;BME280;69061;52.236;5.188;2023-08-07T12:25:02;101651.59;;;21.89;51.68
64908;BME280;69061;52.236;5.188;2023-08-07T12:27:29;101657.53;;;21.84;50.20
64908;BME280;69061;52.236;5.188;2023-08-07T12:29:55;101655.81;;;21.74;51.00
64908;BME280;69061;52.236;5.188;2023-08-07T12:32:22;101666.38;;;21.68;51.46
64908;BME280;69061;52.236;5.188;2023-08-07T12:34:48;101652.41;;;21.69;52.50
64908;BME280;69061;52.236;5.188;2023-08-07T12:37:15;101651.44;;;21.80;52.34
64908;BME280;69061;52.236;5.188;2023-08-07T12:39:43;101639.25;;;21.88;52.77
64908;BME280;69061;52.236;5.188;2023-08-07T12:42:10;101663.97;;;22.07;49.70
64908;BME280;69061;52.236;5.188;2023-08-07T12:44:37;101660.56;;;21.86;49.06
64908;BME280;69061;52.236;5.188;2023-08-07T12:47:04;101653.94;;;21.70;50.95
64908;BME280;69061;52.236;5.188;2023-08-07T12:49:31;101660.19;;;21.67;51.48